Time;durP1;ratioP1;P1;durP2;ratioP2;P2;SDS_P1;SDS_P2;PMS_P1;PMS_P2;Temp;Humidity;BMP_temperature;BMP_pressure;BME280_temperature;BME280_humidity;BME280_pressure;Samples;Min_cycle;Max_cycle;Signal;HPM_P1;HPM_P2
2023/01/09 00:00:42;;;;;;;5.47;2.08;;;7.40;99.90;;;;;;4965779;28;20140;-59
2023/01/09 00:03:08;;;;;;;6.70;2.17;;;7.40;99.90;;;;;;4965895;28;20314;-60
2023/01/09 00:05:34;;;;;;;5.03;2.00;;;7.40;99.90;;;;;;4979534;28;20042;-60
2023/01/09 00:08:02;;;;;;;6.13;2.17;;;7.40;99.90;;;;;;4973967;28;20045;-60
2023/01/09 00:10:28;;;;;;;5.28;2.30;;;7.40;99.90;;;;;;4972227;28;20045;-61
2023/01/09 00:12:54;;;;;;;7.68;2.25;;;7.40;99.90;;;;;;4977339;28;20050;-60
2023/01/09 00:15:20;;;;;;;7.20;2.58;;;7.40;99.90;;;;;;4980029;28;20038;-61
2023/01/09 00:17:46;;;;;;;4.82;1.90;;;7.40;99.90;;;;;;4961842;28;20490;-61
2023/01/09 00:20:13;;;;;;;6.75;2.72;;;7.40;99.90;;;;;;4996376;28;20050;-60
2023/01/09 00:22:41;;;;;;;4.95;1.63;;;7.40;99.90;;;;;;4974642;28;20041;-61
2023/01/09 00:25:07;;;;;;;6.28;2.22;;;7.40;99.90;;;;;;4993629;28;20072;-61
2023/01/09 00:27:35;;;;;;;4.28;1.80;;;7.40;99.90;;;;;;4980197;28;20046;-61
2023/01/09 00:30:01;;;;;;;6.78;2.00;;;7.40;99.90;;;;;;4994090;28;22282;-61
2023/01/09 00:32:28;;;;;;;4.45;2.00;;;7.40;99.90;;;;;;4980567;28;20057;-60
2023/01/09 00:34:54;;;;;;;4.68;1.65;;;7.40;99.90;;;;;;4978078;28;20508;-59
2023/01/09 00:37:20;;;;;;;9.18;2.25;;;7.40;99.90;;;;;;4976507;28;20034;-61
2023/01/09 00:39:46;;;;;;;5.40;2.22;;;7.40;99.90;;;;;;4959374;28;20540;-60
2023/01/09 00:42:20;;;;;;;4.05;1.80;;;7.40;99.90;;;;;;4980816;28;20050;-61
2023/01/09 00:44:50;;;;;;;5.78;1.90;;;7.40;99.90;;;;;;4999311;28;20038;-60
2023/01/09 00:47:24;;;;;;;4.43;1.90;;;7.40;99.90;;;;;;4975905;28;20125;-60
2023/01/09 00:49:50;;;;;;;;;;;7.50;99.90;;;;;;4981915;28;20046;-60
2023/01/09 00:52:18;;;;;;;8.75;1.98;;;7.40;99.90;;;;;;4975710;28;20408;-60
2023/01/09 00:54:44;;;;;;;8.45;2.50;;;7.40;99.90;;;;;;4982108;28;20043;-59
2023/01/09 00:57:12;;;;;;;6.32;1.70;;;7.40;99.90;;;;;;4984122;28;20041;-60
2023/01/09 00:59:39;;;;;;;6.32;1.75;;;7.50;99.90;;;;;;4982144;28;20031;-60
2023/01/09 01:02:05;;;;;;;5.38;1.92;;;7.50;99.90;;;;;;4966122;28;20038;-60
2023/01/09 01:09:59;;;;;;;5.30;1.42;;;7.50;99.90;;;;;;4980103;28;19925;-60
2023/01/09 01:12:25;;;;;;;7.40;2.53;;;7.50;99.90;;;;;;4981022;28;20045;-60
2023/01/09 01:14:51;;;;;;;4.47;2.33;;;7.40;99.90;;;;;;4978962;28;20498;-60
2023/01/09 01:17:17;;;;;;;7.25;2.45;;;7.50;99.90;;;;;;4974770;28;20041;-60
2023/01/09 01:19:43;;;;;;;6.90;1.92;;;7.50;99.90;;;;;;4977458;28;20129;-60
2023/01/09 01:22:12;;;;;;;4.07;2.00;;;7.50;99.90;;;;;;4977307;28;20137;-59
2023/01/09 01:24:38;;;;;;;7.97;2.15;;;7.50;99.90;;;;;;4967566;28;20046;-60
2023/01/09 01:29:40;;;;;;;7.32;1.98;;;7.50;99.90;;;;;;4960946;28;20055;-62
2023/01/09 01:32:06;;;;;;;8.68;2.38;;;7.50;99.90;;;;;;4989909;28;20124;-62
2023/01/09 01:34:32;;;;;;;8.02;2.20;;;7.60;99.90;;;;;;4977016;28;20088;-62
2023/01/09 01:36:58;;;;;;;7.68;2.38;;;7.60;99.90;;;;;;4982492;28;20042;-62
2023/01/09 01:39:24;;;;;;;9.30;2.53;;;7.50;99.90;;;;;;4974928;28;20034;-62
2023/01/09 01:41:49;;;;;;;8.80;2.35;;;7.50;99.90;;;;;;4993677;28;20030;-62
2023/01/09 01:44:53;;;;;;;9.43;3.22;;;7.60;99.90;;;;;;4981751;28;20045;-62
2023/01/09 01:47:19;;;;;;;9.20;2.95;;;7.50;99.90;;;;;;4982266;28;20236;-62
2023/01/09 01:49:46;;;;;;;9.60;3.50;;;7.50;99.90;;;;;;4971298;28;20053;-62
2023/01/09 01:52:18;;;;;;;9.93;2.63;;;7.50;99.90;;;;;;4985454;28;20050;-62
2023/01/09 01:54:44;;;;;;;6.78;2.28;;;7.50;99.90;;;;;;4969169;28;20187;-62
2023/01/09 01:57:10;;;;;;;5.82;2.30;;;7.50;99.90;;;;;;4977761;28;20048;-62
2023/01/09 01:59:52;;;;;;;7.00;2.42;;;7.50;99.90;;;;;;4999161;28;21057;-62
2023/01/09 02:02:22;;;;;;;13.85;2.67;;;7.40;99.90;;;;;;4972757;28;21176;-62
2023/01/09 02:04:51;;;;;;;9.43;2.35;;;7.40;99.90;;;;;;4989681;28;20046;-62
2023/01/09 02:07:17;;;;;;;6.90;2.03;;;7.40;99.90;;;;;;4976424;28;20461;-62
2023/01/09 02:09:46;;;;;;;5.78;1.70;;;7.30;99.90;;;;;;4992608;28;20121;-62
2023/01/09 02:12:23;;;;;;;7.38;2.03;;;7.30;99.90;;;;;;4963922;28;20042;-62
2023/01/09 02:14:57;;;;;;;10.15;2.83;;;7.30;99.90;;;;;;4967206;28;20377;-62
2023/01/09 02:17:51;;;;;;;7.40;2.20;;;7.20;99.90;;;;;;4975931;28;20038;-62
2023/01/09 02:20:19;;;;;;;8.50;2.00;;;7.20;99.90;;;;;;4973985;28;20660;-62
2023/01/09 02:23:03;;;;;;;8.55;2.67;;;7.20;99.90;;;;;;4969436;28;20049;-62
2023/01/09 02:25:56;;;;;;;10.15;2.78;;;7.20;99.90;;;;;;4979373;28;20092;-62
2023/01/09 02:29:00;;;;;;;7.28;2.08;;;7.10;99.90;;;;;;4972950;28;20124;-62
2023/01/09 02:31:50;;;;;;;9.43;2.58;;;7.10;99.90;;;;;;4989401;28;20231;-62
2023/01/09 02:34:54;;;;;;;12.77;2.50;;;7.00;99.90;;;;;;4977364;28;20115;-62
2023/01/09 02:37:49;;;;;;;9.05;2.10;;;7.00;99.90;;;;;;4919424;28;20085;-62
2023/01/09 02:40:35;;;;;;;11.27;2.05;;;6.90;99.90;;;;;;4999737;28;20050;-62
2023/01/09 02:43:02;;;;;;;12.90;2.45;;;6.90;99.90;;;;;;4985105;28;20057;-62
2023/01/09 02:45:28;;;;;;;8.40;2.17;;;6.90;99.90;;;;;;4990290;28;20041;-62
2023/01/09 02:47:53;;;;;;;8.88;2.40;;;6.90;99.90;;;;;;4979352;28;20050;-62
2023/01/09 02:50:23;;;;;;;9.18;2.38;;;6.80;99.90;;;;;;4969535;28;20517;-62
2023/01/09 02:52:58;;;;;;;9.82;2.13;;;6.80;99.90;;;;;;4981864;28;20046;-62
2023/01/09 02:55:39;;;;;;;11.52;2.97;;;6.80;99.90;;;;;;4976663;28;20519;-62
2023/01/09 02:58:19;;;;;;;3.83;1.50;;;6.70;99.90;;;;;;4996005;28;20042;-62
2023/01/09 03:01:12;;;;;;;7.15;2.00;;;6.70;99.90;;;;;;4977002;28;20046;-63
2023/01/09 03:03:43;;;;;;;7.25;2.13;;;6.70;99.90;;;;;;4977945;28;20044;-62
2023/01/09 03:06:19;;;;;;;12.20;3.35;;;6.60;99.90;;;;;;4981063;28;20058;-62
2023/01/09 03:08:58;;;;;;;10.60;2.00;;;6.60;99.90;;;;;;4995490;28;20046;-62
2023/01/09 03:11:30;;;;;;;10.48;2.10;;;6.60;99.90;;;;;;4983270;28;20049;-62
2023/01/09 03:14:01;;;;;;;6.70;1.75;;;6.50;99.90;;;;;;4990370;28;20041;-62
2023/01/09 03:16:33;;;;;;;10.18;1.85;;;6.50;99.90;;;;;;4980674;28;20091;-63
2023/01/09 03:19:00;;;;;;;7.65;2.42;;;6.50;99.90;;;;;;4978620;28;20092;-62
2023/01/09 03:21:27;;;;;;;12.20;2.55;;;6.40;99.90;;;;;;4973689;28;20041;-62
2023/01/09 03:23:55;;;;;;;6.43;1.80;;;6.40;99.90;;;;;;4992420;28;20039;-63
2023/01/09 03:26:21;;;;;;;4.90;2.20;;;6.40;99.90;;;;;;4979720;28;20293;-62
2023/01/09 03:28:47;;;;;;;8.77;2.25;;;6.30;99.90;;;;;;4983935;28;20081;-62
2023/01/09 03:31:13;;;;;;;10.40;2.55;;;6.30;99.90;;;;;;4996504;28;20120;-62
2023/01/09 03:33:39;;;;;;;8.07;2.00;;;6.30;99.90;;;;;;4982694;28;20046;-62
2023/01/09 03:36:06;;;;;;;8.70;2.85;;;6.30;99.90;;;;;;4985551;28;20455;-62
2023/01/09 03:38:32;;;;;;;6.97;2.42;;;6.20;99.90;;;;;;4965345;28;20034;-61
2023/01/09 03:40:58;;;;;;;6.35;2.05;;;6.20;99.90;;;;;;4976462;28;20054;-61
2023/01/09 03:43:26;;;;;;;8.43;2.58;;;6.20;99.90;;;;;;4989111;28;20042;-62
2023/01/09 03:45:52;;;;;;;7.97;2.28;;;6.20;99.90;;;;;;4972268;28;20556;-62
2023/01/09 03:48:18;;;;;;;7.13;2.30;;;6.20;99.90;;;;;;5012789;28;20119;-62
2023/01/09 03:50:46;;;;;;;9.80;3.08;;;6.20;99.90;;;;;;4968768;28;20049;-62
2023/01/09 03:53:14;;;;;;;9.98;2.10;;;6.20;99.90;;;;;;4965243;28;20050;-62
2023/01/09 03:55:45;;;;;;;9.73;2.70;;;6.20;99.90;;;;;;4985675;28;20050;-61
2023/01/09 03:58:12;;;;;;;8.25;2.58;;;6.20;99.90;;;;;;4966948;28;20061;-62
2023/01/09 04:00:39;;;;;;;7.18;2.40;;;6.20;99.90;;;;;;4967407;28;20977;-62
2023/01/09 04:03:08;;;;;;;10.20;2.50;;;6.20;99.90;;;;;;4976818;28;20053;-62
2023/01/09 04:05:35;;;;;;;8.68;2.50;;;6.10;99.90;;;;;;4975103;28;20050;-62
2023/01/09 04:08:04;;;;;;;8.90;2.70;;;6.10;99.90;;;;;;4977008;28;20069;-62
2023/01/09 04:10:30;;;;;;;6.05;2.75;;;6.10;99.90;;;;;;4982930;28;20068;-62
2023/01/09 04:12:56;;;;;;;9.63;2.72;;;6.20;99.90;;;;;;4957896;28;20124;-62
2023/01/09 04:15:25;;;;;;;10.05;2.55;;;6.20;99.90;;;;;;4974047;28;20049;-62
2023/01/09 04:17:50;;;;;;;10.32;3.50;;;6.20;99.90;;;;;;4984187;28;20527;-62
2023/01/09 04:20:17;;;;;;;6.95;3.03;;;6.20;99.90;;;;;;4978398;28;20475;-62
2023/01/09 04:22:43;;;;;;;6.68;2.83;;;6.20;99.90;;;;;;4997309;28;20056;-62
2023/01/09 04:25:09;;;;;;;7.35;4.30;;;6.20;99.90;;;;;;4983750;28;20392;-62
2023/01/09 04:27:35;;;;;;;8.40;3.45;;;6.20;99.90;;;;;;4965850;28;20049;-61
2023/01/09 04:30:00;;;;;;;11.55;4.43;;;6.20;99.90;;;;;;4980731;28;20040;-62
2023/01/09 04:32:26;;;;;;;9.43;3.95;;;6.20;99.90;;;;;;4978527;28;20100;-62
2023/01/09 04:34:56;;;;;;;9.10;3.00;;;6.20;99.90;;;;;;4974147;28;20408;-61
2023/01/09 04:37:22;;;;;;;11.82;3.83;;;6.20;99.90;;;;;;4964507;28;20046;-62
2023/01/09 04:39:48;;;;;;;10.65;3.80;;;6.20;99.90;;;;;;4982249;28;20042;-61
2023/01/09 04:42:14;;;;;;;11.85;3.65;;;6.10;99.90;;;;;;4980500;28;20053;-61
2023/01/09 04:44:40;;;;;;;7.55;3.40;;;6.10;99.90;;;;;;4972009;28;20052;-62
2023/01/09 04:47:06;;;;;;;9.60;3.80;;;6.10;99.90;;;;;;5001521;28;20133;-62
2023/01/09 04:49:32;;;;;;;9.40;3.83;;;6.10;99.90;;;;;;4982219;28;20045;-62
2023/01/09 04:51:58;;;;;;;8.93;3.40;;;6.10;99.90;;;;;;4998083;28;20069;-62
2023/01/09 04:54:23;;;;;;;6.60;3.67;;;6.10;99.90;;;;;;4982169;28;20046;-62
2023/01/09 04:56:49;;;;;;;10.88;3.67;;;6.00;99.90;;;;;;4990469;28;20248;-62
2023/01/09 04:59:15;;;;;;;9.35;3.78;;;6.00;99.90;;;;;;5005337;28;20057;-62
2023/01/09 05:01:41;;;;;;;6.78;3.58;;;6.00;99.90;;;;;;5009704;28;20045;-62
2023/01/09 05:04:07;;;;;;;8.23;3.90;;;6.00;99.90;;;;;;4964923;28;20049;-62
2023/01/09 05:06:33;;;;;;;11.68;4.35;;;6.00;99.90;;;;;;4982863;28;20481;-62
2023/01/09 05:08:59;;;;;;;10.13;4.07;;;5.90;99.90;;;;;;4994329;28;20037;-62
2023/01/09 05:11:25;;;;;;;7.47;4.00;;;5.90;99.90;;;;;;4992694;28;20448;-62
2023/01/09 05:13:52;;;;;;;7.72;4.22;;;5.90;99.90;;;;;;4981858;28;20198;-62
2023/01/09 05:16:20;;;;;;;10.95;4.15;;;5.90;99.90;;;;;;4994904;28;20064;-62
2023/01/09 05:18:46;;;;;;;9.95;4.32;;;5.90;99.90;;;;;;4966845;28;20044;-61
2023/01/09 05:21:12;;;;;;;12.60;4.72;;;5.90;99.90;;;;;;4980610;28;20497;-62
2023/01/09 05:23:38;;;;;;;15.15;4.75;;;5.90;99.90;;;;;;4977828;28;20556;-62
2023/01/09 05:26:04;;;;;;;11.23;5.15;;;5.90;99.90;;;;;;4980622;28;20038;-62
2023/01/09 05:28:33;;;;;;;12.40;4.90;;;5.80;99.90;;;;;;4972525;28;20034;-62
2023/01/09 05:30:58;;;;;;;12.13;5.05;;;5.90;99.90;;;;;;4981620;28;20049;-62
2023/01/09 05:33:24;;;;;;;10.60;4.95;;;5.90;99.90;;;;;;4987851;28;20133;-62
2023/01/09 05:35:50;;;;;;;13.77;5.80;;;5.90;99.90;;;;;;4977041;28;20069;-62
2023/01/09 05:38:15;;;;;;;9.52;5.25;;;5.90;99.90;;;;;;4978685;28;20464;-62
2023/01/09 05:40:41;;;;;;;11.05;6.28;;;5.90;99.90;;;;;;4984400;28;20042;-62
2023/01/09 05:43:07;;;;;;;13.13;6.70;;;5.90;99.90;;;;;;4976367;28;20124;-62
2023/01/09 05:45:33;;;;;;;10.93;6.28;;;5.90;99.90;;;;;;4978721;28;20069;-62
2023/01/09 05:47:59;;;;;;;9.68;6.25;;;5.90;99.90;;;;;;4982863;28;20104;-62
2023/01/09 05:50:25;;;;;;;11.38;6.03;;;5.90;99.90;;;;;;4977668;28;20050;-62
2023/01/09 05:52:50;;;;;;;16.88;6.53;;;5.90;99.90;;;;;;4987223;28;20069;-61
2023/01/09 05:55:16;;;;;;;11.80;6.28;;;5.90;99.90;;;;;;4995821;28;20262;-61
2023/01/09 05:57:45;;;;;;;15.23;7.50;;;5.90;99.90;;;;;;4988151;28;20520;-62
2023/01/09 06:00:11;;;;;;;12.80;7.10;;;5.90;99.90;;;;;;4959052;28;20046;-62
2023/01/09 06:02:37;;;;;;;12.73;8.23;;;5.90;99.90;;;;;;4996983;28;20035;-62
2023/01/09 06:05:03;;;;;;;15.57;7.70;;;5.90;99.90;;;;;;4949473;28;20053;-61
2023/01/09 06:07:29;;;;;;;12.10;8.07;;;6.00;99.90;;;;;;4965796;28;20081;-61
2023/01/09 06:09:55;;;;;;;15.38;9.88;;;5.90;99.90;;;;;;4972661;28;20056;-62
2023/01/09 06:12:20;;;;;;;18.50;10.00;;;6.00;99.90;;;;;;4982868;28;20532;-61
2023/01/09 06:14:46;;;;;;;17.70;9.45;;;6.00;99.90;;;;;;4963350;28;20049;-62
2023/01/09 06:17:12;;;;;;;21.98;10.85;;;6.00;99.90;;;;;;4975409;28;20042;-62
2023/01/09 06:19:38;;;;;;;14.65;10.25;;;6.00;99.90;;;;;;4974540;28;20034;-62
2023/01/09 06:22:03;;;;;;;19.77;11.35;;;6.10;99.90;;;;;;4975513;28;20049;-61
2023/01/09 06:24:29;;;;;;;17.40;10.95;;;6.10;99.90;;;;;;4977672;28;20065;-62
2023/01/09 06:26:55;;;;;;;18.98;12.50;;;6.10;99.90;;;;;;4979521;28;20057;-61
2023/01/09 06:29:24;;;;;;;18.42;11.23;;;6.10;99.90;;;;;;4996093;28;20042;-62
2023/01/09 06:31:49;;;;;;;21.75;12.60;;;6.10;99.90;;;;;;4975083;28;20095;-62
2023/01/09 06:34:15;;;;;;;19.58;12.93;;;6.10;99.90;;;;;;4978588;28;20070;-62
2023/01/09 06:36:41;;;;;;;16.17;12.27;;;6.10;99.90;;;;;;4973030;28;20061;-62
2023/01/09 06:39:06;;;;;;;17.25;11.55;;;6.10;99.90;;;;;;4977540;28;20042;-62
2023/01/09 06:41:32;;;;;;;19.85;12.95;;;6.10;99.90;;;;;;4982235;28;20064;-62
2023/01/09 06:43:58;;;;;;;20.70;13.18;;;6.10;99.90;;;;;;5002540;28;20358;-62
2023/01/09 06:46:23;;;;;;;18.13;13.20;;;6.10;99.90;;;;;;4984824;28;20132;-62
2023/01/09 06:48:49;;;;;;;19.65;12.60;;;6.10;99.90;;;;;;4976479;28;20070;-62
2023/01/09 06:51:15;;;;;;;19.13;12.27;;;6.10;99.90;;;;;;4980766;28;20169;-62
2023/01/09 06:53:41;;;;;;;24.63;14.00;;;6.10;99.90;;;;;;4976683;28;20042;-62
2023/01/09 06:56:06;;;;;;;17.67;13.02;;;6.10;99.90;;;;;;4990013;28;20037;-62
2023/01/09 06:58:32;;;;;;;23.20;12.80;;;6.10;99.90;;;;;;4991383;28;20165;-62
2023/01/09 07:00:58;;;;;;;19.52;13.88;;;6.10;99.90;;;;;;4994370;28;20428;-62
2023/01/09 07:03:24;;;;;;;19.77;14.25;;;6.10;99.90;;;;;;4977699;28;20092;-62
2023/01/09 07:05:50;;;;;;;21.48;13.80;;;6.10;99.90;;;;;;4965038;28;20396;-62
2023/01/09 07:08:16;;;;;;;21.15;13.02;;;6.10;99.90;;;;;;4979986;28;20050;-62
2023/01/09 07:10:43;;;;;;;17.77;12.27;;;6.10;99.90;;;;;;4982984;28;20042;-62
2023/01/09 07:13:09;;;;;;;18.17;12.23;;;6.10;99.90;;;;;;4976686;28;20133;-62
2023/01/09 07:15:38;;;;;;;18.65;12.73;;;6.10;99.90;;;;;;4987696;28;20468;-62
2023/01/09 07:18:04;;;;;;;19.63;11.77;;;6.10;99.90;;;;;;4985275;28;20044;-62
2023/01/09 07:20:30;;;;;;;19.00;12.27;;;6.10;99.90;;;;;;4994748;28;20042;-62
2023/01/09 07:22:56;;;;;;;18.50;12.23;;;6.10;99.90;;;;;;4988230;28;20095;-62
2023/01/09 07:25:22;;;;;;;19.73;12.30;;;6.00;99.90;;;;;;4959913;28;20041;-62
2023/01/09 07:27:47;;;;;;;24.10;12.98;;;6.00;99.90;;;;;;4977148;28;20071;-63
2023/01/09 07:30:13;;;;;;;18.55;11.07;;;6.00;99.90;;;;;;4981315;28;20042;-61
2023/01/09 07:32:39;;;;;;;19.65;12.43;;;5.90;99.90;;;;;;4999264;28;20484;-62
2023/01/09 07:35:09;;;;;;;20.42;11.82;;;5.90;99.90;;;;;;4991347;28;20042;-62
2023/01/09 07:37:35;;;;;;;16.50;10.52;;;5.90;99.90;;;;;;4977713;28;20045;-62
2023/01/09 07:40:03;;;;;;;19.92;10.82;;;5.90;99.90;;;;;;4977382;28;20042;-61
2023/01/09 07:42:29;;;;;;;15.40;10.85;;;5.90;99.90;;;;;;4973419;28;20113;-62
2023/01/09 07:44:55;;;;;;;17.15;11.35;;;5.90;99.90;;;;;;4972679;28;20198;-62
2023/01/09 07:47:21;;;;;;;21.15;11.93;;;5.90;99.90;;;;;;4964121;28;20034;-62
2023/01/09 07:49:46;;;;;;;20.15;11.13;;;5.90;99.90;;;;;;4973784;28;20046;-62
2023/01/09 07:52:12;;;;;;;18.20;10.90;;;5.90;99.90;;;;;;4970132;28;20049;-61
2023/01/09 07:54:38;;;;;;;15.10;10.65;;;5.90;99.90;;;;;;4971317;28;20069;-62
2023/01/09 07:57:03;;;;;;;18.15;10.23;;;5.90;99.90;;;;;;4965489;28;20094;-63
2023/01/09 07:59:29;;;;;;;15.23;10.43;;;5.90;99.90;;;;;;4975330;23;20050;-63
2023/01/09 08:01:55;;;;;;;14.00;9.55;;;6.10;99.90;;;;;;4943669;28;20042;-61
2023/01/09 08:04:21;;;;;;;16.50;10.32;;;5.90;99.90;;;;;;4982465;28;20469;-62
2023/01/09 08:06:47;;;;;;;14.32;8.82;;;5.90;99.90;;;;;;4958514;28;20039;-62
2023/01/09 08:09:13;;;;;;;14.88;9.63;;;5.90;99.90;;;;;;4959158;28;20486;-62
2023/01/09 08:11:42;;;;;;;15.50;10.20;;;6.00;99.90;;;;;;4961265;28;20093;-62
2023/01/09 08:14:08;;;;;;;17.05;8.95;;;6.00;99.90;;;;;;4958917;28;20073;-63
2023/01/09 08:16:33;;;;;;;13.18;8.80;;;6.00;99.90;;;;;;4962295;28;20039;-59
2023/01/09 08:18:59;;;;;;;18.15;9.43;;;6.00;99.90;;;;;;4950818;28;20073;-62
2023/01/09 08:21:25;;;;;;;13.02;8.77;;;6.00;99.90;;;;;;4964115;28;20076;-61
2023/01/09 08:23:51;;;;;;;14.02;8.40;;;6.00;99.90;;;;;;4960126;28;20125;-61
2023/01/09 08:26:19;;;;;;;16.58;8.13;;;6.10;99.90;;;;;;4982002;28;20125;-62
2023/01/09 08:28:48;;;;;;;12.40;8.45;;;6.10;99.90;;;;;;4984613;28;20413;-61
2023/01/09 08:31:14;;;;;;;13.23;7.57;;;6.10;99.90;;;;;;4978364;28;20093;-62
2023/01/09 08:33:40;;;;;;;11.77;8.93;;;6.10;99.90;;;;;;4978693;28;20485;-63
2023/01/09 08:36:06;;;;;;;11.70;8.43;;;6.10;99.90;;;;;;4963230;28;20053;-62
2023/01/09 08:38:35;;;;;;;15.93;8.68;;;6.10;99.90;;;;;;4968705;28;20046;-62
2023/01/09 08:47:04;;;;;;;15.32;7.57;;;6.10;99.90;;;;;;4966462;28;20049;-63
2023/01/09 08:49:15;;;;;;;11.18;7.95;;;6.20;99.90;;;;;;4986743;28;20046;-63
2023/01/09 08:51:41;;;;;;;14.40;7.95;;;6.20;99.90;;;;;;4983893;28;20107;-62
2023/01/09 08:54:06;;;;;;;11.80;7.63;;;6.20;99.90;;;;;;4943512;28;20035;-64
2023/01/09 08:56:32;;;;;;;14.82;7.40;;;6.20;99.90;;;;;;4966711;28;20039;-63
2023/01/09 08:58:58;;;;;;;14.07;7.90;;;6.30;99.90;;;;;;4969223;28;20544;-63
2023/01/09 09:01:23;;;;;;;11.98;6.78;;;6.30;99.90;;;;;;4967347;28;20042;-62
2023/01/09 09:03:49;;;;;;;12.23;7.03;;;6.30;99.90;;;;;;4941892;28;20046;-63
2023/01/09 09:06:15;;;;;;;9.40;6.88;;;6.30;99.90;;;;;;4981370;28;20092;-63
2023/01/09 09:08:43;;;;;;;12.77;7.72;;;6.30;99.90;;;;;;4981218;28;20501;-62
2023/01/09 09:11:09;;;;;;;11.85;7.47;;;6.30;99.90;;;;;;4968795;28;20465;-63
2023/01/09 09:13:34;;;;;;;15.05;7.03;;;6.40;99.90;;;;;;4966170;28;20045;-62
2023/01/09 09:16:03;;;;;;;12.88;7.63;;;6.40;99.90;;;;;;4952563;28;20461;-62
2023/01/09 09:18:28;;;;;;;13.13;7.15;;;6.40;99.90;;;;;;4982616;28;20034;-64
2023/01/09 09:20:54;;;;;;;16.60;7.85;;;6.40;99.90;;;;;;4967745;28;20120;-62
2023/01/09 09:23:22;;;;;;;13.88;7.22;;;6.40;99.90;;;;;;4963871;28;20316;-62
2023/01/09 09:25:47;;;;;;;11.10;6.93;;;6.40;99.90;;;;;;4952981;28;20046;-63
2023/01/09 09:28:13;;;;;;;11.63;7.20;;;6.40;99.90;;;;;;4950528;28;20109;-63
2023/01/09 09:30:39;;;;;;;15.73;7.93;;;6.50;99.90;;;;;;4967623;28;20081;-61
2023/01/09 09:33:05;;;;;;;12.07;7.38;;;6.50;99.90;;;;;;4978121;28;20129;-63
2023/01/09 09:35:32;;;;;;;13.38;7.90;;;6.50;99.90;;;;;;4967697;28;20644;-63
2023/01/09 09:38:00;;;;;;;14.00;7.35;;;6.50;99.90;;;;;;4964708;28;20039;-63
2023/01/09 09:41:06;;;;;;;11.27;7.15;;;6.50;99.90;;;;;;4963158;28;20047;-64
2023/01/09 09:47:15;;;;;;;12.45;6.97;;;6.50;99.90;;;;;;4937573;28;20050;-62
2023/01/09 09:49:51;;;;;;;14.00;6.70;;;6.60;99.90;;;;;;4966508;28;20485;-62
2023/01/09 09:52:47;;;;;;;17.00;7.00;;;6.60;99.90;;;;;;4955198;28;20130;-62
2023/01/09 09:55:25;;;;;;;12.10;7.18;;;6.60;99.90;;;;;;4967197;28;20042;-62
2023/01/09 09:57:51;;;;;;;12.95;7.32;;;6.60;99.90;;;;;;4949079;28;20044;-63
2023/01/09 10:00:22;;;;;;;13.18;6.97;;;6.70;99.90;;;;;;4959299;28;20497;-63
2023/01/09 10:02:57;;;;;;;12.60;6.65;;;6.70;99.90;;;;;;4978728;28;20077;-64
2023/01/09 10:05:33;;;;;;;12.75;7.57;;;6.70;99.90;;;;;;4987318;28;20046;-62
2023/01/09 10:08:08;;;;;;;13.30;6.45;;;6.80;99.90;;;;;;4984182;28;20093;-61
2023/01/09 10:10:46;;;;;;;14.07;6.00;;;6.80;99.90;;;;;;4986248;28;20456;-62
2023/01/09 10:16:04;;;;;;;11.80;6.25;;;6.90;99.90;;;;;;4976812;28;20046;-62
2023/01/09 10:18:47;;;;;;;14.38;7.93;;;6.90;99.90;;;;;;4959097;28;20082;-62
2023/01/09 10:21:31;;;;;;;13.57;7.55;;;7.00;99.90;;;;;;4960412;28;20085;-62
2023/01/09 10:24:06;;;;;;;14.20;7.00;;;7.00;99.90;;;;;;4963583;28;20042;-63
2023/01/09 10:26:49;;;;;;;10.65;6.60;;;7.10;99.90;;;;;;4982894;28;20512;-64
2023/01/09 10:29:31;;;;;;;10.15;5.97;;;7.10;99.90;;;;;;4968057;28;20046;-63
2023/01/09 10:32:11;;;;;;;13.55;6.50;;;7.10;99.90;;;;;;4984841;28;20053;-61
2023/01/09 10:35:06;;;;;;;9.80;5.72;;;7.20;99.90;;;;;;4982260;28;20035;-64
2023/01/09 10:37:37;;;;;;;;;;;7.20;99.90;;;;;;4981923;28;20546;-63
2023/01/09 10:40:14;;;;;;;10.43;6.03;;;7.20;99.90;;;;;;4965082;28;19973;-63
2023/01/09 10:42:51;;;;;;;13.50;6.97;;;7.20;99.90;;;;;;4969935;28;20093;-64
2023/01/09 10:45:39;;;;;;;11.68;6.28;;;7.20;99.90;;;;;;4963096;28;20420;-62
2023/01/09 10:48:29;;;;;;;12.10;6.15;;;7.20;99.90;;;;;;4946232;28;20070;-63
2023/01/09 10:50:56;;;;;;;13.82;6.47;;;7.20;99.90;;;;;;4945876;28;20080;-62
2023/01/09 10:53:43;;;;;;;12.48;6.07;;;7.20;99.90;;;;;;4954825;28;20090;-64
2023/01/09 10:56:40;;;;;;;15.82;6.43;;;7.20;99.90;;;;;;4946805;28;20130;-63
2023/01/09 10:59:08;;;;;;;13.85;7.00;;;7.20;99.90;;;;;;4961918;28;20510;-64
2023/01/09 11:01:38;;;;;;;14.55;7.07;;;7.20;99.90;;;;;;4944488;28;20490;-62
2023/01/09 11:04:33;;;;;;;10.23;6.15;;;7.20;99.90;;;;;;4971753;28;20046;-64
2023/01/09 11:07:14;;;;;;;17.33;7.10;;;7.20;99.90;;;;;;4964084;28;20125;-62
2023/01/09 11:10:02;;;;;;;11.82;6.45;;;7.20;99.90;;;;;;4973223;28;20456;-64
2023/01/09 11:12:31;;;;;;;12.38;7.10;;;7.20;99.90;;;;;;4964762;28;20054;-64
2023/01/09 11:15:15;;;;;;;12.20;7.15;;;7.20;99.90;;;;;;4968935;28;20493;-63
2023/01/09 11:17:48;;;;;;;13.77;7.45;;;7.20;99.90;;;;;;4982559;28;20031;-64
2023/01/09 11:20:21;;;;;;;12.00;7.05;;;7.20;99.90;;;;;;4968558;28;20553;-64
2023/01/09 11:22:49;;;;;;;14.10;7.87;;;7.30;99.90;;;;;;4966954;28;20054;-63
2023/01/09 11:25:21;;;;;;;12.50;6.88;;;7.30;99.90;;;;;;4971666;28;20074;-63
2023/01/09 11:28:03;;;;;;;15.55;7.72;;;7.30;99.90;;;;;;4969136;28;20054;-64
2023/01/09 11:30:30;;;;;;;19.02;7.63;;;7.30;99.90;;;;;;4980200;28;20569;-62
2023/01/09 11:32:57;;;;;;;15.68;7.32;;;7.30;99.90;;;;;;4955817;28;20053;-64
2023/01/09 11:35:31;;;;;;;14.90;7.38;;;7.30;99.90;;;;;;4983522;28;20322;-63
2023/01/09 11:38:14;;;;;;;14.98;8.55;;;7.40;99.90;;;;;;4960026;28;20069;-64
2023/01/09 11:41:01;;;;;;;11.05;7.10;;;7.40;99.90;;;;;;4990077;28;20038;-63
2023/01/09 11:43:33;;;;;;;11.15;7.38;;;7.40;99.90;;;;;;4967525;28;20126;-63
2023/01/09 11:46:02;;;;;;;12.55;7.38;;;7.40;99.90;;;;;;4968950;28;20034;-62
2023/01/09 11:48:33;;;;;;;10.20;6.07;;;7.40;99.90;;;;;;4981209;28;20043;-63
2023/01/09 11:51:00;;;;;;;13.30;7.68;;;7.40;99.90;;;;;;4971459;28;20042;-64
2023/01/09 11:53:29;;;;;;;15.38;7.60;;;7.40;99.90;;;;;;4967380;28;20478;-64
2023/01/09 11:56:02;;;;;;;11.65;7.13;;;7.40;99.90;;;;;;4968068;28;20042;-64
2023/01/09 11:58:33;;;;;;;13.13;8.32;;;7.40;99.90;;;;;;4964559;28;20046;-64
2023/01/09 12:01:25;;;;;;;16.80;7.70;;;7.40;99.90;;;;;;4967108;28;20687;-64
2023/01/09 12:04:09;;;;;;;13.65;8.45;;;7.40;99.90;;;;;;4982224;28;20047;-62
2023/01/09 12:07:12;;;;;;;16.00;9.32;;;7.50;99.90;;;;;;4969708;28;20045;-62
2023/01/09 12:10:15;;;;;;;17.60;7.85;;;7.40;99.90;;;;;;4968196;28;20044;-61
2023/01/09 12:13:13;;;;;;;11.63;7.45;;;7.40;99.90;;;;;;4969516;28;20294;-63
2023/01/09 12:16:07;;;;;;;10.07;6.28;;;7.50;99.90;;;;;;4981020;28;20353;-62
2023/01/09 12:18:52;;;;;;;14.45;7.75;;;7.50;99.90;;;;;;4962406;28;20039;-62
2023/01/09 12:21:29;;;;;;;10.82;7.72;;;7.50;99.90;;;;;;4962208;28;20077;-64
2023/01/09 12:24:20;;;;;;;12.88;7.75;;;7.60;99.90;;;;;;4972213;28;20085;-62
2023/01/09 12:27:15;;;;;;;14.27;7.80;;;7.60;99.90;;;;;;4962739;28;20105;-63
2023/01/09 12:30:18;;;;;;;18.67;9.15;;;7.60;99.90;;;;;;4962676;28;20042;-62
2023/01/09 12:33:02;;;;;;;14.15;9.38;;;7.60;99.90;;;;;;4976220;28;20141;-63
2023/01/09 12:35:37;;;;;;;17.67;9.15;;;7.70;99.90;;;;;;4979623;28;20046;-64
2023/01/09 12:38:20;;;;;;;15.43;9.85;;;7.70;99.90;;;;;;4971727;28;20105;-63
2023/01/09 12:41:23;;;;;;;16.73;10.13;;;7.80;99.90;;;;;;4976562;28;20038;-63
2023/01/09 12:44:23;;;;;;;13.80;9.93;;;7.80;99.90;;;;;;4974596;28;20034;-61
2023/01/09 12:47:47;;;;;;;18.85;9.77;;;7.90;99.90;;;;;;4962543;28;20045;-64
2023/01/09 12:50:31;;;;;;;11.38;9.13;;;8.20;99.90;;;;;;4880121;29;20076;-63
2023/01/09 12:53:18;;;;;;;15.35;10.32;;;7.90;99.90;;;;;;4869209;29;20563;-63
2023/01/09 12:56:10;;;;;;;16.98;9.70;;;7.90;99.90;;;;;;4966267;28;20043;-62
2023/01/09 12:58:46;;;;;;;15.70;9.15;;;7.90;99.90;;;;;;4958477;28;20809;-63
2023/01/09 13:01:17;;;;;;;15.88;9.25;;;7.90;99.90;;;;;;4981144;28;20128;-65
2023/01/09 13:04:22;;;;;;;11.02;8.63;;;7.90;99.90;;;;;;4973185;28;20039;-63
2023/01/09 13:06:54;;;;;;;16.30;10.05;;;7.90;99.90;;;;;;4958446;28;20050;-64
2023/01/09 13:09:36;;;;;;;16.70;9.73;;;7.90;99.90;;;;;;4958826;28;20432;-61
2023/01/09 13:12:04;;;;;;;17.02;9.45;;;8.00;99.90;;;;;;4961757;28;20042;-62
2023/01/09 13:14:51;;;;;;;16.27;9.07;;;8.00;99.90;;;;;;4962137;28;20124;-64
2023/01/09 13:17:30;;;;;;;15.43;9.13;;;8.00;99.90;;;;;;4938115;28;20050;-63
2023/01/09 13:19:56;;;;;;;16.58;8.30;;;8.10;99.90;;;;;;4958760;28;20108;-62
2023/01/09 13:22:26;;;;;;;15.52;9.15;;;8.10;99.90;;;;;;4944847;28;20402;-65
2023/01/09 13:25:07;;;;;;;18.23;9.60;;;8.10;99.90;;;;;;4952836;28;20053;-63
2023/01/09 13:27:38;;;;;;;14.25;9.00;;;8.20;99.90;;;;;;4956401;28;20469;-64
2023/01/09 13:30:16;;;;;;;16.73;9.32;;;8.20;99.90;;;;;;4957432;28;20046;-62